createdAt,value
2023-04-26T00:02:19.588Z,101537.16
2023-04-26T00:04:47.837Z,101539.00
2023-04-26T00:07:16.144Z,101538.28
2023-04-26T00:09:44.851Z,101536.63
2023-04-26T00:12:12.457Z,101534.06
2023-04-26T00:14:39.907Z,101540.34
2023-04-26T00:17:06.862Z,101529.81
2023-04-26T00:19:33.844Z,101541.34
2023-04-26T00:22:00.857Z,101537.03
2023-04-26T00:24:27.776Z,101542.34
2023-04-26T00:26:57.666Z,101537.16
2023-04-26T00:29:24.698Z,101538.16
2023-04-26T00:31:51.715Z,101533.88
2023-04-26T00:34:18.718Z,101538.22
2023-04-26T00:36:46.479Z,101540.03
2023-04-26T00:39:13.395Z,101540.16
2023-04-26T00:41:40.320Z,101533.09
2023-04-26T00:44:07.776Z,101537.44
2023-04-26T00:46:35.109Z,101533.09
2023-04-26T00:49:02.947Z,101533.13
2023-04-26T00:51:30.081Z,101531.41
2023-04-26T00:53:57.723Z,101530.56
2023-04-26T00:56:26.695Z,101529.63
2023-04-26T00:58:54.052Z,101519.91
2023-04-26T01:01:21.782Z,101517.25
2023-04-26T01:03:49.304Z,101510.22
2023-04-26T01:06:16.781Z,101516.53
2023-04-26T01:08:44.002Z,101516.59
2023-04-26T01:11:11.219Z,101515.72
2023-04-26T01:13:38.977Z,101507.78
2023-04-26T01:16:08.444Z,101507.88
2023-04-26T01:18:36.400Z,101503.56
2023-04-26T01:21:04.514Z,101505.34
2023-04-26T01:23:32.248Z,101505.41
2023-04-26T01:25:59.289Z,101506.34
2023-04-26T01:28:26.412Z,101510.78
2023-04-26T01:30:53.584Z,101502.91
2023-04-26T01:33:20.976Z,101499.31
2023-04-26T01:35:47.923Z,101494.97
2023-04-26T01:38:15.036Z,101501.09
2023-04-26T01:40:46.396Z,101488.03
2023-04-26T01:43:13.476Z,101494.16
2023-04-26T01:45:40.466Z,101493.38
2023-04-26T01:48:07.878Z,101489.88
2023-04-26T01:50:34.837Z,101478.41
2023-04-26T01:53:02.012Z,101482.00
2023-04-26T01:55:28.994Z,101476.72
2023-04-26T01:57:55.977Z,101471.44
2023-04-26T02:00:23.174Z,101473.22
2023-04-26T02:02:50.371Z,101471.56
2023-04-26T02:05:17.483Z,101473.28
2023-04-26T02:07:44.610Z,101468.00
2023-04-26T02:10:11.591Z,101469.78
2023-04-26T02:12:38.513Z,101473.28
2023-04-26T02:15:06.605Z,101462.84
2023-04-26T02:17:34.246Z,101463.75
2023-04-26T02:20:01.290Z,101464.69
2023-04-26T02:22:28.234Z,101462.06
2023-04-26T02:24:55.241Z,101461.25
2023-04-26T02:27:22.168Z,101460.31
2023-04-26T02:29:49.306Z,101462.09
2023-04-26T02:32:16.271Z,101462.97
2023-04-26T02:34:43.732Z,101457.69
2023-04-26T02:37:10.697Z,101457.69
2023-04-26T02:39:37.671Z,101455.03
2023-04-26T02:42:04.814Z,101452.38
2023-04-26T02:44:31.853Z,101458.47
2023-04-26T02:46:58.871Z,101461.06
2023-04-26T02:49:25.950Z,101449.63
2023-04-26T02:51:52.929Z,101455.78
2023-04-26T02:54:19.905Z,101455.81
2023-04-26T02:56:46.910Z,101455.81
2023-04-26T02:59:13.962Z,101459.34
2023-04-26T03:01:40.970Z,101445.25
2023-04-26T03:04:08.135Z,101446.97
2023-04-26T03:06:35.660Z,101446.03
2023-04-26T03:09:02.747Z,101445.13
2023-04-26T03:11:29.688Z,101448.66
2023-04-26T03:13:56.615Z,101445.25
2023-04-26T03:16:24.108Z,101437.31
2023-04-26T03:18:51.385Z,101438.25
2023-04-26T03:21:18.621Z,101436.44
2023-04-26T03:23:45.672Z,101432.97
2023-04-26T03:26:12.823Z,101426.72
2023-04-26T03:28:39.812Z,101419.66
2023-04-26T03:31:06.791Z,101421.44
2023-04-26T03:33:33.760Z,101416.94
2023-04-26T03:36:00.798Z,101417.75
2023-04-26T03:38:27.772Z,101420.41
2023-04-26T03:40:54.723Z,101415.09
2023-04-26T03:43:21.786Z,101415.09
2023-04-26T03:45:49.843Z,101415.81
2023-04-26T03:48:17.519Z,101411.50
2023-04-26T03:50:45.763Z,101415.09
2023-04-26T03:53:13.173Z,101415.09
2023-04-26T03:55:40.166Z,101413.38
2023-04-26T03:58:08.416Z,101413.38
2023-04-26T04:00:38.843Z,101413.38
2023-04-26T04:03:07.471Z,101410.72
2023-04-26T04:05:34.845Z,101415.09
2023-04-26T04:08:02.157Z,101417.75
2023-04-26T04:10:29.621Z,101415.09
2023-04-26T04:12:56.765Z,101407.22
2023-04-26T04:15:23.898Z,101410.72
2023-04-26T04:17:50.913Z,101410.72
2023-04-26T04:20:18.171Z,101409.81
2023-04-26T04:22:45.074Z,101412.38
2023-04-26T04:25:12.138Z,101407.81
2023-04-26T04:27:39.129Z,101412.16
2023-04-26T04:30:08.088Z,101405.19
2023-04-26T04:32:36.358Z,101410.59
2023-04-26T04:35:03.676Z,101404.78
2023-04-26T04:37:33.897Z,101407.88
2023-04-26T04:40:01.276Z,101405.97
2023-04-26T04:42:28.661Z,101404.09
2023-04-26T04:44:56.413Z,101406.69
2023-04-26T04:47:23.438Z,101412.81
2023-04-26T04:49:50.450Z,101411.00
2023-04-26T04:52:18.900Z,101410.03
2023-04-26T04:54:46.071Z,101402.97
2023-04-26T04:57:14.257Z,101413.56
2023-04-26T04:59:41.404Z,101415.75
2023-04-26T05:02:08.369Z,101418.31
2023-04-26T05:04:35.563Z,101414.53
2023-04-26T05:07:02.591Z,101421.44
2023-04-26T05:09:29.569Z,101422.34
2023-04-26T05:11:56.479Z,101431.41
2023-04-26T05:14:23.443Z,101431.75
2023-04-26T05:16:50.484Z,101425.69
2023-04-26T05:19:17.469Z,101427.91
2023-04-26T05:21:44.433Z,101429.41
2023-04-26T05:24:11.368Z,101423.41
2023-04-26T05:26:38.436Z,101425.69
2023-04-26T05:29:05.445Z,101433.09
2023-04-26T05:31:32.375Z,101437.53
2023-04-26T05:33:59.365Z,101436.66
2023-04-26T05:36:29.636Z,101440.22
2023-04-26T05:38:56.914Z,101435.91
2023-04-26T05:41:23.904Z,101439.69
2023-04-26T05:43:51.123Z,101442.72
2023-04-26T05:46:18.382Z,101442.72
2023-04-26T05:48:45.578Z,101444.59
2023-04-26T05:51:12.546Z,101440.22
2023-04-26T05:53:39.553Z,101456.16
2023-04-26T05:56:07.505Z,101442.94
2023-04-26T05:58:34.546Z,101449.09
2023-04-26T06:01:01.558Z,101449.09
2023-04-26T06:03:28.845Z,101448.22
2023-04-26T06:05:56.351Z,101449.22
2023-04-26T06:08:23.566Z,101449.09
2023-04-26T06:10:50.624Z,101458.66
2023-04-26T06:13:17.638Z,101457.03
2023-04-26T06:15:44.730Z,101463.34
2023-04-26T06:18:11.894Z,101462.66
2023-04-26T06:20:38.863Z,101466.28
2023-04-26T06:23:05.931Z,101462.00
2023-04-26T06:25:34.342Z,101470.34
2023-04-26T06:28:01.440Z,101466.53
2023-04-26T06:30:28.875Z,101465.25
2023-04-26T06:32:56.003Z,101460.69
2023-04-26T06:35:25.023Z,101457.63
2023-04-26T06:37:52.083Z,101458.25
2023-04-26T06:40:19.335Z,101458.13
2023-04-26T06:42:46.306Z,101457.38
2023-04-26T06:45:13.427Z,101455.47
2023-04-26T06:47:40.813Z,101454.63
2023-04-26T06:50:08.551Z,101456.41
2023-04-26T06:52:36.109Z,101460.78
2023-04-26T06:55:04.919Z,101459.03
2023-04-26T06:57:32.165Z,101464.31
2023-04-26T06:59:59.458Z,101460.78
2023-04-26T07:02:26.817Z,101460.78
2023-04-26T07:04:54.586Z,101455.47
2023-04-26T07:07:22.127Z,101462.47
2023-04-26T07:09:50.152Z,101465.09
2023-04-26T07:12:17.410Z,101458.13
2023-04-26T07:14:44.557Z,101457.19
2023-04-26T07:17:11.892Z,101454.41
2023-04-26T07:19:39.282Z,101457.03
2023-04-26T07:22:06.657Z,101459.59
2023-04-26T07:24:34.859Z,101443.72
2023-04-26T07:27:03.068Z,101452.44
2023-04-26T07:29:30.288Z,101449.75
2023-04-26T07:31:59.761Z,101451.53
2023-04-26T07:34:28.175Z,101449.81
2023-04-26T07:36:55.626Z,101448.09
2023-04-26T07:39:22.804Z,101451.56
2023-04-26T07:41:50.372Z,101453.38
2023-04-26T07:44:17.348Z,101451.66
2023-04-26T07:46:44.682Z,101452.44
2023-04-26T07:49:12.458Z,101447.28
2023-04-26T07:51:39.996Z,101447.16
2023-04-26T07:54:07.513Z,101452.31
2023-04-26T07:56:34.745Z,101444.38
2023-04-26T07:59:02.023Z,101452.13
2023-04-26T08:01:29.686Z,101451.13
2023-04-26T08:03:57.086Z,101450.22
2023-04-26T08:06:24.661Z,101450.09
2023-04-26T08:08:54.035Z,101443.06
2023-04-26T08:11:21.228Z,101447.13
2023-04-26T08:13:48.554Z,101441.75
2023-04-26T08:16:15.916Z,101441.91
2023-04-26T08:18:45.367Z,101448.00
2023-04-26T08:21:14.087Z,101446.25
2023-04-26T08:23:41.083Z,101448.91
2023-04-26T08:26:08.146Z,101446.25
2023-04-26T08:28:36.131Z,101442.69
2023-04-26T08:31:03.336Z,101442.75
2023-04-26T08:33:30.943Z,101444.34
2023-04-26T08:36:00.314Z,101444.41
2023-04-26T08:38:27.838Z,101443.44
2023-04-26T08:40:57.756Z,101440.59
2023-04-26T08:43:25.334Z,101437.28
2023-04-26T08:45:52.668Z,101438.28
2023-04-26T08:48:20.816Z,101440.97
2023-04-26T08:50:48.622Z,101443.56
2023-04-26T08:53:20.127Z,101440.06
2023-04-26T08:55:49.146Z,101437.09
2023-04-26T08:58:17.494Z,101436.22
2023-04-26T09:00:46.823Z,101431.88
2023-04-26T09:03:14.364Z,101440.38
2023-04-26T09:05:45.671Z,101429.78
2023-04-26T09:08:16.570Z,101425.50
2023-04-26T09:10:43.793Z,101437.53
2023-04-26T09:13:11.879Z,101434.63
2023-04-26T09:15:39.319Z,101431.09
2023-04-26T09:18:23.676Z,101429.38
2023-04-26T09:21:08.005Z,101425.88
2023-04-26T09:23:35.722Z,101427.69
2023-04-26T09:26:23.120Z,101426.81
2023-04-26T09:28:51.376Z,101425.81
2023-04-26T09:31:39.882Z,101429.25
2023-04-26T09:34:07.321Z,101431.81
2023-04-26T09:36:57.355Z,101422.75
2023-04-26T09:39:35.853Z,101421.56
2023-04-26T09:42:04.445Z,101432.72
2023-04-26T09:44:32.547Z,101421.13
2023-04-26T09:47:00.874Z,101420.00
2023-04-26T09:49:43.779Z,101419.81
2023-04-26T09:52:11.179Z,101417.97
2023-04-26T09:54:41.407Z,101412.66
2023-04-26T09:57:09.175Z,101412.53
2023-04-26T09:59:49.233Z,101414.38
2023-04-26T10:02:24.625Z,101413.31
2023-04-26T10:04:53.914Z,101419.66
2023-04-26T10:07:23.129Z,101410.88
2023-04-26T10:09:51.007Z,101419.53
2023-04-26T10:12:20.441Z,101416.88
2023-04-26T10:14:48.075Z,101416.19
2023-04-26T10:17:15.328Z,101413.59
2023-04-26T10:19:46.981Z,101416.38
2023-04-26T10:22:24.091Z,101413.03
2023-04-26T10:24:54.293Z,101424.44
2023-04-26T10:27:48.534Z,101425.38
2023-04-26T10:30:17.453Z,101418.50
2023-04-26T10:32:53.627Z,101421.13
2023-04-26T10:35:22.182Z,101419.44
2023-04-26T10:38:01.808Z,101418.63
2023-04-26T10:40:41.480Z,101419.56
2023-04-26T10:43:15.222Z,101414.28
2023-04-26T10:45:47.194Z,101411.56
2023-04-26T10:48:18.213Z,101402.69
2023-04-26T10:51:00.533Z,101407.78
2023-04-26T10:53:45.959Z,101406.09
2023-04-26T10:56:33.880Z,101398.13
2023-04-26T10:59:33.238Z,101397.28
2023-04-26T11:02:02.005Z,101399.19
2023-04-26T11:04:52.826Z,101399.28
2023-04-26T11:07:40.172Z,101404.63
2023-04-26T11:10:11.095Z,101407.34
2023-04-26T11:12:42.504Z,101403.69
2023-04-26T11:15:09.849Z,101406.56
2023-04-26T11:17:40.254Z,101411.00
2023-04-26T11:20:10.710Z,101405.75
2023-04-26T11:22:41.293Z,101400.53
2023-04-26T11:25:09.779Z,101400.66
2023-04-26T11:27:37.295Z,101400.53
2023-04-26T11:30:05.444Z,101395.25
2023-04-26T11:32:33.898Z,101389.97
2023-04-26T11:35:01.543Z,101387.31
2023-04-26T11:37:28.763Z,101395.25
2023-04-26T11:39:57.804Z,101389.09
2023-04-26T11:42:27.701Z,101388.22
2023-04-26T11:44:59.770Z,101392.59
2023-04-26T11:47:31.371Z,101387.31
2023-04-26T11:49:58.830Z,101392.53
2023-04-26T11:52:26.953Z,101400.41
2023-04-26T11:55:06.712Z,101391.59
2023-04-26T11:57:35.758Z,101389.81
2023-04-26T12:00:15.598Z,101395.13
2023-04-26T12:02:46.858Z,101391.59
2023-04-26T12:05:30.904Z,101395.13
2023-04-26T12:07:59.613Z,101397.69
2023-04-26T12:10:28.527Z,101400.28
2023-04-26T12:12:57.270Z,101397.53
2023-04-26T12:15:26.067Z,101398.41
2023-04-26T12:17:59.421Z,101401.06
2023-04-26T12:20:31.752Z,101395.75
2023-04-26T12:23:08.876Z,101400.09
2023-04-26T12:25:40.612Z,101396.53
2023-04-26T12:28:14.506Z,101400.06
2023-04-26T12:30:44.894Z,101389.38
2023-04-26T12:33:17.470Z,101396.41
2023-04-26T12:35:46.189Z,101384.09
2023-04-26T12:38:14.781Z,101386.75
2023-04-26T12:40:46.063Z,101394.53
2023-04-26T12:43:13.377Z,101389.25
2023-04-26T12:45:40.442Z,101385.69
2023-04-26T12:48:07.544Z,101387.56
2023-04-26T12:50:34.947Z,101391.91
2023-04-26T12:53:02.126Z,101400.78
2023-04-26T12:55:31.926Z,101401.69
2023-04-26T12:57:59.867Z,101394.81
2023-04-26T13:00:27.632Z,101395.69
2023-04-26T13:02:56.118Z,101392.97
2023-04-26T13:05:25.324Z,101392.03
2023-04-26T13:07:52.596Z,101402.56
2023-04-26T13:10:19.911Z,101395.50
2023-04-26T13:12:47.035Z,101396.28
2023-04-26T13:15:16.175Z,101399.69
2023-04-26T13:17:44.839Z,101397.06
2023-04-26T13:20:12.343Z,101394.53
2023-04-26T13:22:42.278Z,101391.91
2023-04-26T13:25:10.339Z,101393.63
2023-04-26T13:27:37.382Z,101395.41
2023-04-26T13:30:05.015Z,101405.91
2023-04-26T13:32:32.459Z,101394.63
2023-04-26T13:34:59.787Z,101401.69
2023-04-26T13:37:27.362Z,101405.25
2023-04-26T13:39:54.820Z,101399.97
2023-04-26T13:42:22.500Z,101400.91
2023-04-26T13:44:50.179Z,101399.97
2023-04-26T13:47:18.043Z,101397.31
2023-04-26T13:49:45.318Z,101399.94
2023-04-26T13:52:12.439Z,101404.34
2023-04-26T13:54:43.189Z,101400.69
2023-04-26T13:57:10.676Z,101406.88
2023-04-26T13:59:37.809Z,101400.63
2023-04-26T14:02:04.832Z,101398.84
2023-04-26T14:04:32.218Z,101395.41
2023-04-26T14:06:59.505Z,101397.16
2023-04-26T14:09:26.761Z,101400.63
2023-04-26T14:12:06.628Z,101397.16
2023-04-26T14:14:34.879Z,101388.34
2023-04-26T14:17:02.296Z,101391.00
2023-04-26T14:19:29.365Z,101395.41
2023-04-26T14:21:56.493Z,101390.25
2023-04-26T14:24:23.687Z,101387.59
2023-04-26T14:26:51.003Z,101385.84
2023-04-26T14:29:18.044Z,101385.97
2023-04-26T14:31:45.601Z,101390.38
2023-04-26T14:34:14.187Z,101393.91
2023-04-26T14:36:41.973Z,101398.41
2023-04-26T14:39:09.103Z,101390.38
2023-04-26T14:41:36.210Z,101400.97
2023-04-26T14:44:03.143Z,101400.09
2023-04-26T14:46:30.593Z,101389.53
2023-04-26T14:48:57.722Z,101393.97
2023-04-26T14:51:25.982Z,101401.06
2023-04-26T14:53:53.152Z,101400.97
2023-04-26T14:56:20.267Z,101410.69
2023-04-26T14:58:47.262Z,101404.63
2023-04-26T15:01:14.736Z,101403.84
2023-04-26T15:03:41.994Z,101406.41
2023-04-26T15:06:10.292Z,101405.56
2023-04-26T15:08:37.789Z,101402.97
2023-04-26T15:11:05.219Z,101404.84
2023-04-26T15:13:32.352Z,101396.81
2023-04-26T15:16:05.410Z,101397.69
2023-04-26T15:18:34.493Z,101394.38
2023-04-26T15:21:01.685Z,101401.28
2023-04-26T15:23:28.769Z,101399.41
2023-04-26T15:25:56.074Z,101390.81
2023-04-26T15:28:23.274Z,101385.53
2023-04-26T15:30:51.048Z,101398.09
2023-04-26T15:33:19.745Z,101396.97
2023-04-26T15:35:52.035Z,101400.63
2023-04-26T15:38:19.156Z,101396.47
2023-04-26T15:40:46.895Z,101391.53
2023-04-26T15:43:14.282Z,101393.97
2023-04-26T15:45:41.725Z,101396.53
2023-04-26T15:48:08.927Z,101390.78
2023-04-26T15:50:37.824Z,101394.03
2023-04-26T15:53:05.232Z,101385.88
2023-04-26T15:55:35.741Z,101380.78
2023-04-26T15:58:03.163Z,101383.91
2023-04-26T16:00:31.991Z,101381.03
2023-04-26T16:02:59.307Z,101389.69
2023-04-26T16:05:27.072Z,101387.84
2023-04-26T16:07:54.164Z,101380.84
2023-04-26T16:10:21.552Z,101385.06
2023-04-26T16:12:49.032Z,101381.56
2023-04-26T16:15:16.208Z,101381.50
2023-04-26T16:17:43.913Z,101379.72
2023-04-26T16:20:12.018Z,101374.34
2023-04-26T16:22:39.181Z,101371.66
2023-04-26T16:25:07.265Z,101368.06
2023-04-26T16:27:34.336Z,101367.94
2023-04-26T16:30:02.423Z,101368.72
2023-04-26T16:32:31.391Z,101362.50
2023-04-26T16:34:58.878Z,101363.38
2023-04-26T16:37:26.463Z,101370.31
2023-04-26T16:39:57.008Z,101366.78
2023-04-26T16:42:24.649Z,101357.94
2023-04-26T16:44:51.809Z,101373.81
2023-04-26T16:47:19.180Z,101366.72
2023-04-26T16:49:47.218Z,101367.56
2023-04-26T16:52:14.493Z,101358.88
2023-04-26T16:54:42.317Z,101372.00
2023-04-26T16:57:11.576Z,101362.38
2023-04-26T16:59:38.930Z,101374.66
2023-04-26T17:02:06.578Z,101371.16
2023-04-26T17:04:34.329Z,101376.38
2023-04-26T17:07:01.804Z,101370.22
2023-04-26T17:09:32.805Z,101367.72
2023-04-26T17:12:01.589Z,101365.78
2023-04-26T17:14:29.054Z,101370.22
2023-04-26T17:16:58.046Z,101372.88
2023-04-26T17:19:25.713Z,101378.25
2023-04-26T17:21:53.184Z,101379.09
2023-04-26T17:24:20.749Z,101374.72
2023-04-26T17:26:48.336Z,101377.38
2023-04-26T17:29:19.545Z,101381.81
2023-04-26T17:31:47.294Z,101377.50
2023-04-26T17:34:14.688Z,101380.09
2023-04-26T17:36:42.002Z,101379.16
2023-04-26T17:39:09.929Z,101381.88
2023-04-26T17:41:38.965Z,101380.94
2023-04-26T17:44:06.627Z,101387.97
2023-04-26T17:46:33.769Z,101378.66
2023-04-26T17:49:00.919Z,101378.38
2023-04-26T17:51:28.653Z,101381.94
2023-04-26T17:53:55.960Z,101385.53
2023-04-26T17:56:23.602Z,101386.78
2023-04-26T17:58:52.405Z,101391.34
2023-04-26T18:01:21.751Z,101390.56
2023-04-26T18:03:49.829Z,101399.38
2023-04-26T18:06:19.945Z,101386.50
2023-04-26T18:08:47.835Z,101389.84
2023-04-26T18:11:15.327Z,101391.56
2023-04-26T18:13:43.723Z,101396.78
2023-04-26T18:16:13.078Z,101389.66
2023-04-26T18:18:40.360Z,101388.84
2023-04-26T18:21:07.993Z,101388.91
2023-04-26T18:23:35.362Z,101390.78
2023-04-26T18:26:03.745Z,101393.28
2023-04-26T18:28:31.766Z,101395.00
2023-04-26T18:31:00.961Z,101395.00
2023-04-26T18:33:30.021Z,101387.31
2023-04-26T18:35:58.095Z,101391.69
2023-04-26T18:38:25.757Z,101403.16
2023-04-26T18:40:54.739Z,101403.97
2023-04-26T18:43:25.070Z,101403.84
2023-04-26T18:45:53.026Z,101410.81
2023-04-26T18:48:21.727Z,101411.56
2023-04-26T18:50:54.581Z,101414.44
2023-04-26T18:53:28.162Z,101405.66
2023-04-26T18:55:57.917Z,101402.88
2023-04-26T18:58:25.347Z,101416.38
2023-04-26T19:00:54.155Z,101409.13
2023-04-26T19:03:23.359Z,101413.28
2023-04-26T19:05:51.384Z,101407.03
2023-04-26T19:08:18.963Z,101415.50
2023-04-26T19:10:46.260Z,101411.94
2023-04-26T19:13:13.730Z,101411.72
2023-04-26T19:15:42.685Z,101411.66
2023-04-26T19:18:11.938Z,101410.47
2023-04-26T19:20:39.368Z,101410.91
2023-04-26T19:23:07.307Z,101404.41
2023-04-26T19:25:35.376Z,101404.13
2023-04-26T19:28:03.301Z,101402.00
2023-04-26T19:30:30.861Z,101410.31
2023-04-26T19:33:00.182Z,101406.53
2023-04-26T19:35:30.470Z,101407.88
2023-04-26T19:38:00.608Z,101423.41
2023-04-26T19:40:28.110Z,101415.03
2023-04-26T19:42:55.312Z,101418.25
2023-04-26T19:45:24.792Z,101409.88
2023-04-26T19:47:53.357Z,101414.69
2023-04-26T19:50:20.752Z,101415.09
2023-04-26T19:52:48.091Z,101420.00
2023-04-26T19:55:16.799Z,101416.97
2023-04-26T19:57:48.037Z,101423.72
2023-04-26T20:00:17.506Z,101428.47
2023-04-26T20:02:46.340Z,101424.44
2023-04-26T20:05:15.061Z,101430.25
2023-04-26T20:07:43.346Z,101426.53
2023-04-26T20:10:11.357Z,101424.41
2023-04-26T20:12:40.396Z,101420.53
2023-04-26T20:15:11.101Z,101418.34
2023-04-26T20:17:42.796Z,101412.72
2023-04-26T20:20:12.682Z,101421.44
2023-04-26T20:22:42.279Z,101423.72
2023-04-26T20:25:10.113Z,101425.38
2023-04-26T20:27:37.699Z,101426.06
2023-04-26T20:30:07.854Z,101425.97
2023-04-26T20:32:35.584Z,101437.31
2023-04-26T20:35:09.685Z,101430.81
2023-04-26T20:37:37.242Z,101434.25
2023-04-26T20:40:05.872Z,101408.28
2023-04-26T20:42:33.318Z,101441.63
2023-04-26T20:45:02.165Z,101430.16
2023-04-26T20:47:30.683Z,101440.91
2023-04-26T20:49:58.530Z,101446.97
2023-04-26T20:52:26.257Z,101437.22
2023-04-26T20:54:53.504Z,101442.38
2023-04-26T20:57:20.810Z,101449.38
2023-04-26T20:59:48.094Z,101452.81
2023-04-26T21:02:16.584Z,101455.38
2023-04-26T21:04:44.465Z,101452.63
2023-04-26T21:07:12.151Z,101449.47
2023-04-26T21:09:40.926Z,101410.47
2023-04-26T21:12:08.203Z,101457.28
2023-04-26T21:14:35.676Z,101448.69
2023-04-26T21:17:05.903Z,101445.44
2023-04-26T21:19:33.419Z,101449.28
2023-04-26T21:22:00.915Z,101451.38
2023-04-26T21:24:28.393Z,101454.97
2023-04-26T21:26:55.989Z,101454.81
2023-04-26T21:29:23.289Z,101447.81
2023-04-26T21:31:50.433Z,101444.59
2023-04-26T21:34:17.871Z,101452.56
2023-04-26T21:36:45.174Z,101442.03
2023-04-26T21:39:12.698Z,101437.81
2023-04-26T21:41:40.467Z,101442.25
2023-04-26T21:44:07.764Z,101446.28
2023-04-26T21:46:36.217Z,101444.38
2023-04-26T21:49:03.523Z,101444.09
2023-04-26T21:51:31.744Z,101444.03
2023-04-26T21:53:59.811Z,101437.00
2023-04-26T21:56:27.083Z,101440.63
2023-04-26T21:58:54.307Z,101440.69
2023-04-26T22:01:21.368Z,101449.69
2023-04-26T22:03:48.622Z,101445.38
2023-04-26T22:06:15.800Z,101444.63
2023-04-26T22:08:43.058Z,101447.44
2023-04-26T22:11:10.126Z,101442.28
2023-04-26T22:13:37.208Z,101444.16
2023-04-26T22:16:04.523Z,101445.19
2023-04-26T22:18:32.864Z,101441.91
2023-04-26T22:20:59.961Z,101444.72
2023-04-26T22:23:27.037Z,101450.63
2023-04-26T22:25:54.225Z,101453.06
2023-04-26T22:28:21.214Z,101452.66
2023-04-26T22:30:48.299Z,101454.84
2023-04-26T22:33:15.469Z,101464.78
2023-04-26T22:35:42.596Z,101470.28
2023-04-26T22:38:09.678Z,101468.69
2023-04-26T22:40:36.674Z,101454.81
2023-04-26T22:43:03.827Z,101449.59
2023-04-26T22:45:30.907Z,101446.22
2023-04-26T22:47:58.183Z,101446.47
2023-04-26T22:50:25.260Z,101440.44
2023-04-26T22:52:52.218Z,101439.72
2023-04-26T22:55:19.531Z,101444.25
2023-04-26T22:57:46.902Z,101441.81
2023-04-26T23:00:15.007Z,101448.19
2023-04-26T23:02:42.330Z,101448.31
2023-04-26T23:05:10.595Z,101459.00
2023-04-26T23:07:38.686Z,101461.88
2023-04-26T23:10:06.616Z,101450.38
2023-04-26T23:12:33.837Z,101443.50
2023-04-26T23:15:00.956Z,101457.56
2023-04-26T23:17:28.067Z,101458.56
2023-04-26T23:19:55.431Z,101457.75
2023-04-26T23:22:22.433Z,101460.53
2023-04-26T23:24:49.550Z,101456.25
2023-04-26T23:27:16.663Z,101455.56
2023-04-26T23:29:43.610Z,101460.84
2023-04-26T23:32:10.628Z,101460.97
2023-04-26T23:34:37.585Z,101457.59
2023-04-26T23:37:07.168Z,101451.59
2023-04-26T23:39:36.312Z,101456.09
2023-04-26T23:42:04.219Z,101453.59
2023-04-26T23:44:31.228Z,101451.13
2023-04-26T23:46:58.204Z,101446.75
2023-04-26T23:49:25.270Z,101456.53
2023-04-26T23:51:52.209Z,101443.50
2023-04-26T23:54:19.349Z,101447.00
2023-04-26T23:56:46.835Z,101452.31
2023-04-26T23:59:14.820Z,101446.22
